sensor_id;sensor_type;location;lat;lon;timestamp;P1;durP1;ratioP1;P2;durP2;ratioP2
8268;SDS011;4174;48.304;16.364;2023-02-18T00:04:30;4.07;;;1.10;;
8268;SDS011;4174;48.304;16.364;2023-02-18T00:10:32;4.62;;;1.10;;
8268;SDS011;4174;48.304;16.364;2023-02-18T00:16:36;4.20;;;1.20;;
8268;SDS011;4174;48.304;16.364;2023-02-18T00:22:40;4.85;;;1.10;;
8268;SDS011;4174;48.304;16.364;2023-02-18T00:28:44;4.40;;;1.20;;
8268;SDS011;4174;48.304;16.364;2023-02-18T00:34:46;4.50;;;1.23;;
8268;SDS011;4174;48.304;16.364;2023-02-18T00:40:49;4.27;;;1.10;;
8268;SDS011;4174;48.304;16.364;2023-02-18T00:46:53;4.63;;;1.13;;
8268;SDS011;4174;48.304;16.364;2023-02-18T00:52:57;4.00;;;1.00;;
8268;SDS011;4174;48.304;16.364;2023-02-18T00:59:00;4.00;;;0.90;;
8268;SDS011;4174;48.304;16.364;2023-02-18T01:05:04;4.10;;;0.90;;
8268;SDS011;4174;48.304;16.364;2023-02-18T01:11:09;4.78;;;0.95;;
8268;SDS011;4174;48.304;16.364;2023-02-18T01:17:11;3.70;;;0.80;;
8268;SDS011;4174;48.304;16.364;2023-02-18T01:23:16;4.17;;;0.77;;
8268;SDS011;4174;48.304;16.364;2023-02-18T01:29:19;3.33;;;0.80;;
8268;SDS011;4174;48.304;16.364;2023-02-18T01:35:23;3.73;;;0.73;;
8268;SDS011;4174;48.304;16.364;2023-02-18T01:41:26;3.13;;;0.63;;
8268;SDS011;4174;48.304;16.364;2023-02-18T01:47:30;3.50;;;0.63;;
8268;SDS011;4174;48.304;16.364;2023-02-18T01:53:36;3.15;;;0.60;;
8268;SDS011;4174;48.304;16.364;2023-02-18T01:59:39;2.83;;;0.60;;
8268;SDS011;4174;48.304;16.364;2023-02-18T02:05:42;4.30;;;0.80;;
8268;SDS011;4174;48.304;16.364;2023-02-18T02:18:15;2.70;;;0.55;;
8268;SDS011;4174;48.304;16.364;2023-02-18T02:24:52;2.87;;;0.60;;
8268;SDS011;4174;48.304;16.364;2023-02-18T02:31:02;2.90;;;0.60;;
8268;SDS011;4174;48.304;16.364;2023-02-18T02:37:53;2.55;;;0.50;;
8268;SDS011;4174;48.304;16.364;2023-02-18T02:44:09;2.50;;;0.40;;
8268;SDS011;4174;48.304;16.364;2023-02-18T02:50:13;2.55;;;0.50;;
8268;SDS011;4174;48.304;16.364;2023-02-18T02:56:18;3.87;;;0.50;;
8268;SDS011;4174;48.304;16.364;2023-02-18T03:02:39;2.00;;;0.40;;
8268;SDS011;4174;48.304;16.364;2023-02-18T03:08:46;2.20;;;0.45;;
8268;SDS011;4174;48.304;16.364;2023-02-18T03:15:07;2.30;;;0.50;;
8268;SDS011;4174;48.304;16.364;2023-02-18T03:21:12;2.00;;;0.40;;
8268;SDS011;4174;48.304;16.364;2023-02-18T03:27:20;2.53;;;0.50;;
8268;SDS011;4174;48.304;16.364;2023-02-18T03:33:30;3.20;;;0.60;;
8268;SDS011;4174;48.304;16.364;2023-02-18T03:39:33;3.40;;;0.80;;
8268;SDS011;4174;48.304;16.364;2023-02-18T03:45:35;2.80;;;0.60;;
8268;SDS011;4174;48.304;16.364;2023-02-18T03:51:38;2.90;;;0.60;;
8268;SDS011;4174;48.304;16.364;2023-02-18T03:57:41;3.00;;;0.70;;
8268;SDS011;4174;48.304;16.364;2023-02-18T04:03:44;3.13;;;0.60;;
8268;SDS011;4174;48.304;16.364;2023-02-18T04:09:47;3.40;;;0.70;;
8268;SDS011;4174;48.304;16.364;2023-02-18T04:15:51;2.83;;;0.62;;
8268;SDS011;4174;48.304;16.364;2023-02-18T04:21:55;3.37;;;0.70;;
8268;SDS011;4174;48.304;16.364;2023-02-18T04:27:59;4.13;;;0.80;;
8268;SDS011;4174;48.304;16.364;2023-02-18T04:34:02;2.97;;;0.70;;
8268;SDS011;4174;48.304;16.364;2023-02-18T04:40:06;3.33;;;0.70;;
8268;SDS011;4174;48.304;16.364;2023-02-18T04:46:10;3.22;;;0.60;;
8268;SDS011;4174;48.304;16.364;2023-02-18T04:52:14;2.93;;;0.60;;
8268;SDS011;4174;48.304;16.364;2023-02-18T04:58:17;4.07;;;0.80;;
8268;SDS011;4174;48.304;16.364;2023-02-18T05:04:19;3.03;;;0.60;;
8268;SDS011;4174;48.304;16.364;2023-02-18T05:10:22;3.07;;;0.60;;
8268;SDS011;4174;48.304;16.364;2023-02-18T05:16:26;3.17;;;0.60;;
8268;SDS011;4174;48.304;16.364;2023-02-18T05:22:30;2.67;;;0.60;;
8268;SDS011;4174;48.304;16.364;2023-02-18T05:28:33;3.20;;;0.60;;
8268;SDS011;4174;48.304;16.364;2023-02-18T05:34:36;3.30;;;0.70;;
8268;SDS011;4174;48.304;16.364;2023-02-18T05:40:40;3.33;;;0.70;;
8268;SDS011;4174;48.304;16.364;2023-02-18T05:46:44;3.70;;;0.70;;
8268;SDS011;4174;48.304;16.364;2023-02-18T05:52:47;2.60;;;0.60;;
8268;SDS011;4174;48.304;16.364;2023-02-18T05:58:50;3.10;;;0.60;;
8268;SDS011;4174;48.304;16.364;2023-02-18T06:04:54;3.50;;;0.60;;
8268;SDS011;4174;48.304;16.364;2023-02-18T06:10:58;3.53;;;0.60;;
8268;SDS011;4174;48.304;16.364;2023-02-18T06:17:01;3.07;;;0.60;;
8268;SDS011;4174;48.304;16.364;2023-02-18T06:23:05;2.93;;;0.60;;
8268;SDS011;4174;48.304;16.364;2023-02-18T06:29:08;3.40;;;0.77;;
8268;SDS011;4174;48.304;16.364;2023-02-18T06:35:12;3.40;;;0.70;;
8268;SDS011;4174;48.304;16.364;2023-02-18T06:41:16;3.57;;;0.87;;
8268;SDS011;4174;48.304;16.364;2023-02-18T06:47:20;3.20;;;0.70;;
8268;SDS011;4174;48.304;16.364;2023-02-18T06:53:24;3.40;;;0.77;;
8268;SDS011;4174;48.304;16.364;2023-02-18T06:59:28;3.87;;;0.80;;
8268;SDS011;4174;48.304;16.364;2023-02-18T07:05:31;4.57;;;1.17;;
8268;SDS011;4174;48.304;16.364;2023-02-18T07:11:34;3.83;;;0.83;;
8268;SDS011;4174;48.304;16.364;2023-02-18T07:17:38;3.35;;;0.80;;
8268;SDS011;4174;48.304;16.364;2023-02-18T07:23:42;3.10;;;0.80;;
8268;SDS011;4174;48.304;16.364;2023-02-18T07:29:45;4.03;;;1.00;;
8268;SDS011;4174;48.304;16.364;2023-02-18T07:35:53;3.95;;;0.90;;
8268;SDS011;4174;48.304;16.364;2023-02-18T07:41:56;3.83;;;1.00;;
8268;SDS011;4174;48.304;16.364;2023-02-18T07:47:59;3.80;;;0.83;;
8268;SDS011;4174;48.304;16.364;2023-02-18T07:54:03;5.10;;;1.00;;
8268;SDS011;4174;48.304;16.364;2023-02-18T08:00:09;4.18;;;1.05;;
8268;SDS011;4174;48.304;16.364;2023-02-18T08:06:19;4.35;;;1.00;;
8268;SDS011;4174;48.304;16.364;2023-02-18T08:12:22;5.00;;;1.10;;
8268;SDS011;4174;48.304;16.364;2023-02-18T08:18:25;4.43;;;1.10;;
8268;SDS011;4174;48.304;16.364;2023-02-18T08:24:28;6.12;;;1.42;;
8268;SDS011;4174;48.304;16.364;2023-02-18T08:30:32;4.40;;;1.17;;
8268;SDS011;4174;48.304;16.364;2023-02-18T08:36:36;3.83;;;1.10;;
8268;SDS011;4174;48.304;16.364;2023-02-18T08:42:40;4.37;;;1.20;;
8268;SDS011;4174;48.304;16.364;2023-02-18T08:48:44;3.80;;;1.00;;
8268;SDS011;4174;48.304;16.364;2023-02-18T08:54:47;3.67;;;0.90;;
8268;SDS011;4174;48.304;16.364;2023-02-18T09:00:51;4.22;;;0.90;;
8268;SDS011;4174;48.304;16.364;2023-02-18T09:06:54;5.07;;;1.17;;
8268;SDS011;4174;48.304;16.364;2023-02-18T09:12:58;3.93;;;1.10;;
8268;SDS011;4174;48.304;16.364;2023-02-18T09:19:02;4.18;;;1.15;;
8268;SDS011;4174;48.304;16.364;2023-02-18T09:25:05;3.90;;;1.20;;
8268;SDS011;4174;48.304;16.364;2023-02-18T09:31:11;3.85;;;1.10;;
8268;SDS011;4174;48.304;16.364;2023-02-18T09:37:13;3.47;;;0.90;;
8268;SDS011;4174;48.304;16.364;2023-02-18T09:43:34;3.70;;;0.90;;
8268;SDS011;4174;48.304;16.364;2023-02-18T09:49:39;4.23;;;1.00;;
8268;SDS011;4174;48.304;16.364;2023-02-18T09:55:41;5.70;;;1.27;;
8268;SDS011;4174;48.304;16.364;2023-02-18T10:01:45;4.25;;;1.30;;
8268;SDS011;4174;48.304;16.364;2023-02-18T10:07:48;4.13;;;1.40;;
8268;SDS011;4174;48.304;16.364;2023-02-18T10:13:52;3.92;;;1.30;;
8268;SDS011;4174;48.304;16.364;2023-02-18T10:19:57;4.60;;;1.48;;
8268;SDS011;4174;48.304;16.364;2023-02-18T10:26:02;4.20;;;1.20;;
8268;SDS011;4174;48.304;16.364;2023-02-18T10:38:32;4.87;;;1.10;;
8268;SDS011;4174;48.304;16.364;2023-02-18T10:44:44;5.10;;;1.10;;
8268;SDS011;4174;48.304;16.364;2023-02-18T10:50:45;3.73;;;1.00;;
8268;SDS011;4174;48.304;16.364;2023-02-18T10:56:49;4.30;;;1.23;;
8268;SDS011;4174;48.304;16.364;2023-02-18T11:03:13;4.40;;;1.20;;
8268;SDS011;4174;48.304;16.364;2023-02-18T11:09:29;4.30;;;1.10;;
8268;SDS011;4174;48.304;16.364;2023-02-18T11:15:31;3.90;;;1.00;;
8268;SDS011;4174;48.304;16.364;2023-02-18T11:21:35;4.55;;;1.10;;
8268;SDS011;4174;48.304;16.364;2023-02-18T11:27:41;4.00;;;1.10;;
8268;SDS011;4174;48.304;16.364;2023-02-18T11:33:43;4.80;;;1.20;;
8268;SDS011;4174;48.304;16.364;2023-02-18T11:39:47;4.57;;;1.23;;
8268;SDS011;4174;48.304;16.364;2023-02-18T11:45:49;4.40;;;1.20;;
8268;SDS011;4174;48.304;16.364;2023-02-18T11:51:52;4.93;;;1.27;;
8268;SDS011;4174;48.304;16.364;2023-02-18T11:57:57;4.13;;;1.17;;
8268;SDS011;4174;48.304;16.364;2023-02-18T12:10:20;3.95;;;1.02;;
8268;SDS011;4174;48.304;16.364;2023-02-18T12:16:28;3.90;;;1.00;;
8268;SDS011;4174;48.304;16.364;2023-02-18T12:22:42;3.57;;;1.00;;
8268;SDS011;4174;48.304;16.364;2023-02-18T12:41:41;3.73;;;0.83;;
8268;SDS011;4174;48.304;16.364;2023-02-18T12:48:04;3.58;;;0.80;;
8268;SDS011;4174;48.304;16.364;2023-02-18T12:54:33;3.40;;;0.73;;
8268;SDS011;4174;48.304;16.364;2023-02-18T13:00:57;3.50;;;0.80;;
8268;SDS011;4174;48.304;16.364;2023-02-18T13:07:06;3.47;;;0.80;;
8268;SDS011;4174;48.304;16.364;2023-02-18T13:13:30;4.00;;;0.90;;
8268;SDS011;4174;48.304;16.364;2023-02-18T13:19:42;3.75;;;0.90;;
8268;SDS011;4174;48.304;16.364;2023-02-18T13:25:50;3.33;;;0.75;;
8268;SDS011;4174;48.304;16.364;2023-02-18T13:31:57;4.20;;;0.80;;
8268;SDS011;4174;48.304;16.364;2023-02-18T13:44:39;3.60;;;0.90;;
8268;SDS011;4174;48.304;16.364;2023-02-18T13:51:01;3.30;;;0.70;;
8268;SDS011;4174;48.304;16.364;2023-02-18T13:57:05;3.72;;;0.80;;
8268;SDS011;4174;48.304;16.364;2023-02-18T14:09:55;3.33;;;0.70;;
8268;SDS011;4174;48.304;16.364;2023-02-18T14:15:58;3.45;;;0.70;;
8268;SDS011;4174;48.304;16.364;2023-02-18T14:34:49;3.17;;;0.70;;
8268;SDS011;4174;48.304;16.364;2023-02-18T14:40:57;3.37;;;0.70;;
8268;SDS011;4174;48.304;16.364;2023-02-18T14:47:09;3.60;;;0.70;;
8268;SDS011;4174;48.304;16.364;2023-02-18T14:53:39;3.33;;;0.70;;
8268;SDS011;4174;48.304;16.364;2023-02-18T14:59:41;3.28;;;0.80;;
8268;SDS011;4174;48.304;16.364;2023-02-18T15:05:44;3.00;;;0.70;;
8268;SDS011;4174;48.304;16.364;2023-02-18T15:11:48;2.87;;;0.60;;
8268;SDS011;4174;48.304;16.364;2023-02-18T15:18:01;3.05;;;0.70;;
8268;SDS011;4174;48.304;16.364;2023-02-18T15:24:07;3.03;;;0.65;;
8268;SDS011;4174;48.304;16.364;2023-02-18T15:30:23;3.50;;;0.62;;
8268;SDS011;4174;48.304;16.364;2023-02-18T15:36:26;3.00;;;0.60;;
8268;SDS011;4174;48.304;16.364;2023-02-18T15:42:31;4.12;;;0.82;;
8268;SDS011;4174;48.304;16.364;2023-02-18T15:48:37;3.70;;;0.80;;
8268;SDS011;4174;48.304;16.364;2023-02-18T15:54:47;3.97;;;0.90;;
8268;SDS011;4174;48.304;16.364;2023-02-18T16:00:51;3.53;;;0.80;;
8268;SDS011;4174;48.304;16.364;2023-02-18T16:06:55;3.28;;;0.70;;
8268;SDS011;4174;48.304;16.364;2023-02-18T16:12:58;5.95;;;0.80;;
8268;SDS011;4174;48.304;16.364;2023-02-18T16:19:02;3.17;;;0.60;;
8268;SDS011;4174;48.304;16.364;2023-02-18T16:25:09;3.15;;;0.70;;
8268;SDS011;4174;48.304;16.364;2023-02-18T16:31:18;4.20;;;0.80;;
8268;SDS011;4174;48.304;16.364;2023-02-18T16:37:21;3.30;;;0.70;;
8268;SDS011;4174;48.304;16.364;2023-02-18T16:43:30;3.47;;;0.70;;
8268;SDS011;4174;48.304;16.364;2023-02-18T16:49:35;4.47;;;1.00;;
8268;SDS011;4174;48.304;16.364;2023-02-18T16:55:38;4.07;;;1.00;;
8268;SDS011;4174;48.304;16.364;2023-02-18T17:01:41;3.77;;;0.93;;
8268;SDS011;4174;48.304;16.364;2023-02-18T17:07:43;3.70;;;0.60;;
8268;SDS011;4174;48.304;16.364;2023-02-18T17:13:49;3.17;;;0.90;;
8268;SDS011;4174;48.304;16.364;2023-02-18T17:19:52;3.05;;;0.68;;
8268;SDS011;4174;48.304;16.364;2023-02-18T17:25:55;2.97;;;0.63;;
8268;SDS011;4174;48.304;16.364;2023-02-18T17:31:59;3.15;;;0.62;;
8268;SDS011;4174;48.304;16.364;2023-02-18T17:38:04;4.22;;;0.90;;
8268;SDS011;4174;48.304;16.364;2023-02-18T17:44:10;3.87;;;0.70;;
8268;SDS011;4174;48.304;16.364;2023-02-18T17:50:16;3.27;;;0.80;;
8268;SDS011;4174;48.304;16.364;2023-02-18T17:56:20;4.03;;;0.70;;
8268;SDS011;4174;48.304;16.364;2023-02-18T18:02:26;3.53;;;0.80;;
8268;SDS011;4174;48.304;16.364;2023-02-18T18:08:27;5.18;;;0.90;;
8268;SDS011;4174;48.304;16.364;2023-02-18T18:14:30;4.15;;;0.80;;
8268;SDS011;4174;48.304;16.364;2023-02-18T18:20:34;3.50;;;0.80;;
8268;SDS011;4174;48.304;16.364;2023-02-18T18:26:37;3.90;;;0.80;;
8268;SDS011;4174;48.304;16.364;2023-02-18T18:32:40;5.70;;;1.40;;
8268;SDS011;4174;48.304;16.364;2023-02-18T18:38:45;4.95;;;1.10;;
8268;SDS011;4174;48.304;16.364;2023-02-18T18:44:48;5.17;;;0.90;;
8268;SDS011;4174;48.304;16.364;2023-02-18T18:50:52;3.50;;;0.80;;
8268;SDS011;4174;48.304;16.364;2023-02-18T18:56:55;3.60;;;0.80;;
8268;SDS011;4174;48.304;16.364;2023-02-18T19:02:58;3.13;;;0.80;;
8268;SDS011;4174;48.304;16.364;2023-02-18T19:09:01;3.83;;;0.90;;
8268;SDS011;4174;48.304;16.364;2023-02-18T19:15:05;4.40;;;0.80;;
8268;SDS011;4174;48.304;16.364;2023-02-18T19:21:10;3.20;;;0.73;;
8268;SDS011;4174;48.304;16.364;2023-02-18T19:27:13;3.30;;;0.70;;
8268;SDS011;4174;48.304;16.364;2023-02-18T19:33:18;3.40;;;0.77;;
8268;SDS011;4174;48.304;16.364;2023-02-18T19:39:21;3.85;;;0.90;;
8268;SDS011;4174;48.304;16.364;2023-02-18T19:45:24;3.87;;;0.80;;
8268;SDS011;4174;48.304;16.364;2023-02-18T19:51:28;3.80;;;1.10;;
8268;SDS011;4174;48.304;16.364;2023-02-18T19:57:32;3.27;;;0.80;;
8268;SDS011;4174;48.304;16.364;2023-02-18T20:03:34;3.60;;;0.73;;
8268;SDS011;4174;48.304;16.364;2023-02-18T20:09:38;3.17;;;0.80;;
8268;SDS011;4174;48.304;16.364;2023-02-18T20:15:41;3.10;;;0.70;;
8268;SDS011;4174;48.304;16.364;2023-02-18T20:21:45;3.30;;;0.70;;
8268;SDS011;4174;48.304;16.364;2023-02-18T20:27:48;4.20;;;0.90;;
8268;SDS011;4174;48.304;16.364;2023-02-18T20:33:54;3.55;;;0.70;;
8268;SDS011;4174;48.304;16.364;2023-02-18T20:39:57;3.05;;;0.70;;
8268;SDS011;4174;48.304;16.364;2023-02-18T20:46:02;3.47;;;0.80;;
8268;SDS011;4174;48.304;16.364;2023-02-18T20:52:06;3.58;;;0.80;;
8268;SDS011;4174;48.304;16.364;2023-02-18T20:58:08;3.13;;;0.70;;
8268;SDS011;4174;48.304;16.364;2023-02-18T21:04:13;3.00;;;0.70;;
8268;SDS011;4174;48.304;16.364;2023-02-18T21:10:15;3.80;;;0.87;;
8268;SDS011;4174;48.304;16.364;2023-02-18T21:16:19;3.20;;;0.70;;
8268;SDS011;4174;48.304;16.364;2023-02-18T21:22:21;3.73;;;0.80;;
8268;SDS011;4174;48.304;16.364;2023-02-18T21:28:25;3.47;;;0.70;;
8268;SDS011;4174;48.304;16.364;2023-02-18T21:34:29;3.20;;;0.77;;
8268;SDS011;4174;48.304;16.364;2023-02-18T21:40:32;3.03;;;0.63;;
8268;SDS011;4174;48.304;16.364;2023-02-18T21:46:36;3.53;;;0.55;;
8268;SDS011;4174;48.304;16.364;2023-02-18T21:52:40;2.97;;;0.60;;
8268;SDS011;4174;48.304;16.364;2023-02-18T21:58:44;2.92;;;0.60;;
8268;SDS011;4174;48.304;16.364;2023-02-18T22:04:48;2.92;;;0.70;;
8268;SDS011;4174;48.304;16.364;2023-02-18T22:10:51;2.90;;;0.60;;
8268;SDS011;4174;48.304;16.364;2023-02-18T22:16:57;2.77;;;0.60;;
8268;SDS011;4174;48.304;16.364;2023-02-18T22:23:00;3.53;;;0.80;;
8268;SDS011;4174;48.304;16.364;2023-02-18T22:29:04;2.80;;;0.60;;
8268;SDS011;4174;48.304;16.364;2023-02-18T22:35:07;3.07;;;0.60;;
8268;SDS011;4174;48.304;16.364;2023-02-18T22:41:12;3.15;;;0.60;;
8268;SDS011;4174;48.304;16.364;2023-02-18T22:47:14;2.70;;;0.60;;
8268;SDS011;4174;48.304;16.364;2023-02-18T22:53:17;3.00;;;0.70;;
8268;SDS011;4174;48.304;16.364;2023-02-18T22:59:21;3.30;;;0.80;;
8268;SDS011;4174;48.304;16.364;2023-02-18T23:05:26;3.20;;;0.70;;
8268;SDS011;4174;48.304;16.364;2023-02-18T23:11:30;2.87;;;0.60;;
8268;SDS011;4174;48.304;16.364;2023-02-18T23:17:33;2.90;;;0.60;;
8268;SDS011;4174;48.304;16.364;2023-02-18T23:23:38;3.97;;;0.90;;
8268;SDS011;4174;48.304;16.364;2023-02-18T23:29:41;3.60;;;0.90;;
8268;SDS011;4174;48.304;16.364;2023-02-18T23:35:45;3.53;;;0.80;;
8268;SDS011;4174;48.304;16.364;2023-02-18T23:41:49;2.93;;;0.60;;
8268;SDS011;4174;48.304;16.364;2023-02-18T23:47:51;3.50;;;0.70;;
8268;SDS011;4174;48.304;16.364;2023-02-18T23:53:55;4.10;;;1.00;;
8268;SDS011;4174;48.304;16.364;2023-02-18T23:59:58;3.65;;;0.88;;
